sensor_id;sensor_type;location;lat;lon;timestamp;P1;durP1;ratioP1;P2;durP2;ratioP2
21677;SDS011;11000;50.360;7.582;2023-05-10T00:01:04;0.63;;;0.27;;
21677;SDS011;11000;50.360;7.582;2023-05-10T00:03:25;0.97;;;0.23;;
21677;SDS011;11000;50.360;7.582;2023-05-10T00:05:45;0.97;;;0.30;;
21677;SDS011;11000;50.360;7.582;2023-05-10T00:08:06;0.40;;;0.40;;
21677;SDS011;11000;50.360;7.582;2023-05-10T00:10:26;0.50;;;0.40;;
21677;SDS011;11000;50.360;7.582;2023-05-10T00:12:47;0.57;;;0.30;;
21677;SDS011;11000;50.360;7.582;2023-05-10T00:15:08;1.03;;;0.30;;
21677;SDS011;11000;50.360;7.582;2023-05-10T00:17:29;1.13;;;0.37;;
21677;SDS011;11000;50.360;7.582;2023-05-10T00:19:49;0.30;;;0.30;;
21677;SDS011;11000;50.360;7.582;2023-05-10T00:22:10;0.80;;;0.30;;
21677;SDS011;11000;50.360;7.582;2023-05-10T00:24:30;1.37;;;0.60;;
21677;SDS011;11000;50.360;7.582;2023-05-10T00:26:51;0.33;;;0.30;;
21677;SDS011;11000;50.360;7.582;2023-05-10T00:29:11;1.90;;;0.50;;
21677;SDS011;11000;50.360;7.582;2023-05-10T00:31:32;0.70;;;0.40;;
21677;SDS011;11000;50.360;7.582;2023-05-10T00:33:52;0.10;;;0.10;;
21677;SDS011;11000;50.360;7.582;2023-05-10T00:36:13;1.03;;;0.40;;
21677;SDS011;11000;50.360;7.582;2023-05-10T00:38:33;1.37;;;0.20;;
21677;SDS011;11000;50.360;7.582;2023-05-10T00:40:54;1.80;;;0.40;;
21677;SDS011;11000;50.360;7.582;2023-05-10T00:43:14;1.10;;;0.53;;
21677;SDS011;11000;50.360;7.582;2023-05-10T00:45:35;0.30;;;0.30;;
21677;SDS011;11000;50.360;7.582;2023-05-10T00:47:56;1.13;;;0.40;;
21677;SDS011;11000;50.360;7.582;2023-05-10T00:50:17;0.20;;;0.20;;
21677;SDS011;11000;50.360;7.582;2023-05-10T00:52:38;1.17;;;0.30;;
21677;SDS011;11000;50.360;7.582;2023-05-10T00:54:59;2.23;;;0.30;;
21677;SDS011;11000;50.360;7.582;2023-05-10T00:57:20;0.97;;;0.40;;
21677;SDS011;11000;50.360;7.582;2023-05-10T00:59:41;0.77;;;0.40;;
21677;SDS011;11000;50.360;7.582;2023-05-10T01:02:02;0.30;;;0.30;;
21677;SDS011;11000;50.360;7.582;2023-05-10T01:04:22;0.40;;;0.40;;
21677;SDS011;11000;50.360;7.582;2023-05-10T01:06:45;0.40;;;0.40;;
21677;SDS011;11000;50.360;7.582;2023-05-10T01:09:06;0.43;;;0.40;;
21677;SDS011;11000;50.360;7.582;2023-05-10T01:11:26;1.07;;;0.20;;
21677;SDS011;11000;50.360;7.582;2023-05-10T01:13:49;0.30;;;0.30;;
21677;SDS011;11000;50.360;7.582;2023-05-10T01:16:14;1.03;;;0.20;;
21677;SDS011;11000;50.360;7.582;2023-05-10T01:18:39;0.40;;;0.30;;
21677;SDS011;11000;50.360;7.582;2023-05-10T01:21:14;0.73;;;0.23;;
21677;SDS011;11000;50.360;7.582;2023-05-10T01:31:58;0.40;;;0.40;;
21677;SDS011;11000;50.360;7.582;2023-05-10T01:34:56;0.20;;;0.20;;
21677;SDS011;11000;50.360;7.582;2023-05-10T01:37:20;0.97;;;0.23;;
21677;SDS011;11000;50.360;7.582;2023-05-10T01:42:13;1.23;;;0.30;;
21677;SDS011;11000;50.360;7.582;2023-05-10T01:44:40;2.03;;;0.50;;
21677;SDS011;11000;50.360;7.582;2023-05-10T01:50:10;1.40;;;0.40;;
21677;SDS011;11000;50.360;7.582;2023-05-10T01:52:38;4.00;;;0.50;;
21677;SDS011;11000;50.360;7.582;2023-05-10T01:55:08;1.50;;;0.40;;
21677;SDS011;11000;50.360;7.582;2023-05-10T01:57:33;0.77;;;0.40;;
21677;SDS011;11000;50.360;7.582;2023-05-10T01:59:55;0.30;;;0.30;;
21677;SDS011;11000;50.360;7.582;2023-05-10T02:02:17;0.50;;;0.30;;
21677;SDS011;11000;50.360;7.582;2023-05-10T02:04:40;0.40;;;0.40;;
21677;SDS011;11000;50.360;7.582;2023-05-10T02:07:02;1.80;;;0.40;;
21677;SDS011;11000;50.360;7.582;2023-05-10T02:09:23;2.50;;;0.50;;
21677;SDS011;11000;50.360;7.582;2023-05-10T02:11:47;0.50;;;0.50;;
21677;SDS011;11000;50.360;7.582;2023-05-10T02:14:09;0.40;;;0.40;;
21677;SDS011;11000;50.360;7.582;2023-05-10T02:16:31;0.60;;;0.53;;
21677;SDS011;11000;50.360;7.582;2023-05-10T02:18:52;0.20;;;0.20;;
21677;SDS011;11000;50.360;7.582;2023-05-10T02:21:13;1.47;;;0.40;;
21677;SDS011;11000;50.360;7.582;2023-05-10T02:23:35;0.70;;;0.30;;
21677;SDS011;11000;50.360;7.582;2023-05-10T02:25:57;0.70;;;0.40;;
21677;SDS011;11000;50.360;7.582;2023-05-10T02:28:21;0.57;;;0.43;;
21677;SDS011;11000;50.360;7.582;2023-05-10T02:30:43;0.50;;;0.50;;
21677;SDS011;11000;50.360;7.582;2023-05-10T02:33:04;2.33;;;0.53;;
21677;SDS011;11000;50.360;7.582;2023-05-10T02:35:26;0.57;;;0.53;;
21677;SDS011;11000;50.360;7.582;2023-05-10T02:37:47;2.43;;;0.50;;
21677;SDS011;11000;50.360;7.582;2023-05-10T02:40:08;1.73;;;0.67;;
21677;SDS011;11000;50.360;7.582;2023-05-10T02:42:31;1.23;;;0.40;;
21677;SDS011;11000;50.360;7.582;2023-05-10T02:44:56;0.73;;;0.50;;
21677;SDS011;11000;50.360;7.582;2023-05-10T02:47:20;1.43;;;0.53;;
21677;SDS011;11000;50.360;7.582;2023-05-10T02:49:41;0.50;;;0.50;;
21677;SDS011;11000;50.360;7.582;2023-05-10T02:52:03;0.90;;;0.60;;
21677;SDS011;11000;50.360;7.582;2023-05-10T02:54:28;1.47;;;0.90;;
21677;SDS011;11000;50.360;7.582;2023-05-10T02:56:53;0.60;;;0.60;;
21677;SDS011;11000;50.360;7.582;2023-05-10T02:59:17;0.77;;;0.77;;
21677;SDS011;11000;50.360;7.582;2023-05-10T03:01:38;1.53;;;0.60;;
21677;SDS011;11000;50.360;7.582;2023-05-10T03:03:58;0.83;;;0.60;;
21677;SDS011;11000;50.360;7.582;2023-05-10T03:06:19;1.90;;;0.50;;
21677;SDS011;11000;50.360;7.582;2023-05-10T03:08:39;3.13;;;0.63;;
21677;SDS011;11000;50.360;7.582;2023-05-10T03:13:31;2.37;;;0.77;;
21677;SDS011;11000;50.360;7.582;2023-05-10T03:16:22;0.83;;;0.60;;
21677;SDS011;11000;50.360;7.582;2023-05-10T03:19:06;2.37;;;0.70;;
21677;SDS011;11000;50.360;7.582;2023-05-10T03:21:36;1.43;;;0.70;;
21677;SDS011;11000;50.360;7.582;2023-05-10T03:24:07;1.20;;;0.90;;
21677;SDS011;11000;50.360;7.582;2023-05-10T03:26:31;0.90;;;0.60;;
21677;SDS011;11000;50.360;7.582;2023-05-10T03:28:53;1.63;;;0.80;;
21677;SDS011;11000;50.360;7.582;2023-05-10T03:31:15;1.37;;;0.87;;
21677;SDS011;11000;50.360;7.582;2023-05-10T03:33:45;1.03;;;0.87;;
21677;SDS011;11000;50.360;7.582;2023-05-10T03:36:09;1.37;;;1.03;;
21677;SDS011;11000;50.360;7.582;2023-05-10T03:38:30;1.73;;;0.80;;
21677;SDS011;11000;50.360;7.582;2023-05-10T03:40:50;2.67;;;1.10;;
21677;SDS011;11000;50.360;7.582;2023-05-10T03:43:11;0.63;;;0.63;;
21677;SDS011;11000;50.360;7.582;2023-05-10T03:45:33;1.30;;;1.20;;
21677;SDS011;11000;50.360;7.582;2023-05-10T03:47:53;2.93;;;1.20;;
21677;SDS011;11000;50.360;7.582;2023-05-10T03:50:14;1.30;;;1.20;;
21677;SDS011;11000;50.360;7.582;2023-05-10T03:52:36;1.33;;;1.30;;
21677;SDS011;11000;50.360;7.582;2023-05-10T03:54:59;1.87;;;1.10;;
21677;SDS011;11000;50.360;7.582;2023-05-10T03:57:22;1.80;;;1.20;;
21677;SDS011;11000;50.360;7.582;2023-05-10T03:59:43;1.20;;;1.10;;
21677;SDS011;11000;50.360;7.582;2023-05-10T04:02:05;1.80;;;1.30;;
21677;SDS011;11000;50.360;7.582;2023-05-10T04:04:26;1.30;;;1.20;;
21677;SDS011;11000;50.360;7.582;2023-05-10T04:06:47;2.10;;;1.00;;
21677;SDS011;11000;50.360;7.582;2023-05-10T04:09:10;1.50;;;1.40;;
21677;SDS011;11000;50.360;7.582;2023-05-10T04:11:35;1.37;;;1.27;;
21677;SDS011;11000;50.360;7.582;2023-05-10T04:13:55;2.00;;;1.27;;
21677;SDS011;11000;50.360;7.582;2023-05-10T04:16:17;2.03;;;1.30;;
21677;SDS011;11000;50.360;7.582;2023-05-10T04:18:38;1.77;;;1.40;;
21677;SDS011;11000;50.360;7.582;2023-05-10T04:21:02;3.93;;;1.47;;
21677;SDS011;11000;50.360;7.582;2023-05-10T04:23:22;1.43;;;1.33;;
21677;SDS011;11000;50.360;7.582;2023-05-10T04:25:43;2.60;;;1.60;;
21677;SDS011;11000;50.360;7.582;2023-05-10T04:28:03;4.30;;;1.67;;
21677;SDS011;11000;50.360;7.582;2023-05-10T04:30:24;3.07;;;2.07;;
21677;SDS011;11000;50.360;7.582;2023-05-10T04:32:45;1.80;;;1.70;;
21677;SDS011;11000;50.360;7.582;2023-05-10T04:35:06;3.27;;;1.93;;
21677;SDS011;11000;50.360;7.582;2023-05-10T04:37:27;2.37;;;2.17;;
21677;SDS011;11000;50.360;7.582;2023-05-10T04:39:48;4.37;;;2.40;;
21677;SDS011;11000;50.360;7.582;2023-05-10T04:42:15;4.60;;;2.30;;
21677;SDS011;11000;50.360;7.582;2023-05-10T04:44:36;2.57;;;2.20;;
21677;SDS011;11000;50.360;7.582;2023-05-10T04:46:57;2.90;;;2.50;;
21677;SDS011;11000;50.360;7.582;2023-05-10T04:49:17;8.67;;;2.47;;
21677;SDS011;11000;50.360;7.582;2023-05-10T04:51:38;3.20;;;2.20;;
21677;SDS011;11000;50.360;7.582;2023-05-10T04:53:58;4.10;;;2.60;;
21677;SDS011;11000;50.360;7.582;2023-05-10T04:56:20;3.63;;;2.60;;
21677;SDS011;11000;50.360;7.582;2023-05-10T04:58:41;2.80;;;2.00;;
21677;SDS011;11000;50.360;7.582;2023-05-10T05:01:08;7.53;;;2.70;;
21677;SDS011;11000;50.360;7.582;2023-05-10T05:03:31;2.77;;;2.10;;
21677;SDS011;11000;50.360;7.582;2023-05-10T05:05:52;2.20;;;2.00;;
21677;SDS011;11000;50.360;7.582;2023-05-10T05:08:13;3.77;;;2.43;;
21677;SDS011;11000;50.360;7.582;2023-05-10T05:10:38;2.63;;;2.33;;
21677;SDS011;11000;50.360;7.582;2023-05-10T05:12:59;2.67;;;2.17;;
21677;SDS011;11000;50.360;7.582;2023-05-10T05:15:20;4.87;;;2.33;;
21677;SDS011;11000;50.360;7.582;2023-05-10T05:17:40;4.13;;;2.70;;
21677;SDS011;11000;50.360;7.582;2023-05-10T05:20:01;2.90;;;2.70;;
21677;SDS011;11000;50.360;7.582;2023-05-10T05:22:23;3.37;;;2.37;;
21677;SDS011;11000;50.360;7.582;2023-05-10T05:24:50;3.60;;;2.20;;
21677;SDS011;11000;50.360;7.582;2023-05-10T05:27:10;3.97;;;2.03;;
21677;SDS011;11000;50.360;7.582;2023-05-10T05:29:31;3.70;;;2.13;;
21677;SDS011;11000;50.360;7.582;2023-05-10T05:31:53;5.43;;;2.40;;
21677;SDS011;11000;50.360;7.582;2023-05-10T05:34:14;3.73;;;2.30;;
21677;SDS011;11000;50.360;7.582;2023-05-10T05:36:36;3.37;;;2.07;;
21677;SDS011;11000;50.360;7.582;2023-05-10T05:38:58;3.23;;;1.93;;
21677;SDS011;11000;50.360;7.582;2023-05-10T05:41:18;2.93;;;2.03;;
21677;SDS011;11000;50.360;7.582;2023-05-10T05:43:39;2.20;;;1.63;;
21677;SDS011;11000;50.360;7.582;2023-05-10T05:46:03;2.87;;;1.67;;
21677;SDS011;11000;50.360;7.582;2023-05-10T05:48:23;2.80;;;1.40;;
21677;SDS011;11000;50.360;7.582;2023-05-10T05:50:44;3.80;;;1.73;;
21677;SDS011;11000;50.360;7.582;2023-05-10T05:53:09;3.37;;;2.10;;
21677;SDS011;11000;50.360;7.582;2023-05-10T05:55:30;2.10;;;1.90;;
21677;SDS011;11000;50.360;7.582;2023-05-10T05:57:52;2.33;;;1.53;;
21677;SDS011;11000;50.360;7.582;2023-05-10T06:00:13;1.80;;;1.70;;
21677;SDS011;11000;50.360;7.582;2023-05-10T06:02:34;1.73;;;1.60;;
21677;SDS011;11000;50.360;7.582;2023-05-10T06:04:57;1.50;;;1.40;;
21677;SDS011;11000;50.360;7.582;2023-05-10T06:07:17;2.03;;;1.70;;
21677;SDS011;11000;50.360;7.582;2023-05-10T06:09:38;2.30;;;1.80;;
21677;SDS011;11000;50.360;7.582;2023-05-10T06:11:59;3.03;;;1.80;;
21677;SDS011;11000;50.360;7.582;2023-05-10T06:14:22;4.63;;;1.80;;
21677;SDS011;11000;50.360;7.582;2023-05-10T06:16:43;4.73;;;1.57;;
21677;SDS011;11000;50.360;7.582;2023-05-10T06:19:04;1.60;;;1.40;;
21677;SDS011;11000;50.360;7.582;2023-05-10T06:21:25;3.30;;;1.73;;
21677;SDS011;11000;50.360;7.582;2023-05-10T06:23:46;4.10;;;2.10;;
21677;SDS011;11000;50.360;7.582;2023-05-10T06:26:07;4.40;;;2.10;;
21677;SDS011;11000;50.360;7.582;2023-05-10T06:28:31;5.67;;;2.07;;
21677;SDS011;11000;50.360;7.582;2023-05-10T06:30:56;3.60;;;1.70;;
21677;SDS011;11000;50.360;7.582;2023-05-10T06:33:17;4.30;;;2.00;;
21677;SDS011;11000;50.360;7.582;2023-05-10T06:35:39;3.70;;;1.70;;
21677;SDS011;11000;50.360;7.582;2023-05-10T06:37:59;2.30;;;1.90;;
21677;SDS011;11000;50.360;7.582;2023-05-10T06:40:20;3.30;;;1.70;;
21677;SDS011;11000;50.360;7.582;2023-05-10T06:42:41;6.60;;;1.90;;
21677;SDS011;11000;50.360;7.582;2023-05-10T06:45:02;3.90;;;2.00;;
21677;SDS011;11000;50.360;7.582;2023-05-10T06:47:23;3.43;;;1.83;;
21677;SDS011;11000;50.360;7.582;2023-05-10T06:49:47;2.87;;;1.97;;
21677;SDS011;11000;50.360;7.582;2023-05-10T06:52:07;3.73;;;2.03;;
21677;SDS011;11000;50.360;7.582;2023-05-10T06:54:31;3.47;;;2.00;;
21677;SDS011;11000;50.360;7.582;2023-05-10T06:56:53;4.33;;;2.17;;
21677;SDS011;11000;50.360;7.582;2023-05-10T06:59:15;3.23;;;1.73;;
21677;SDS011;11000;50.360;7.582;2023-05-10T07:01:36;3.40;;;1.80;;
21677;SDS011;11000;50.360;7.582;2023-05-10T07:04:01;3.67;;;2.00;;
21677;SDS011;11000;50.360;7.582;2023-05-10T07:06:22;5.53;;;2.30;;
21677;SDS011;11000;50.360;7.582;2023-05-10T07:08:42;5.53;;;2.00;;
21677;SDS011;11000;50.360;7.582;2023-05-10T07:11:06;3.20;;;2.00;;
21677;SDS011;11000;50.360;7.582;2023-05-10T07:13:27;2.37;;;2.17;;
21677;SDS011;11000;50.360;7.582;2023-05-10T07:15:47;2.97;;;1.90;;
21677;SDS011;11000;50.360;7.582;2023-05-10T07:18:08;8.57;;;2.53;;
21677;SDS011;11000;50.360;7.582;2023-05-10T07:20:29;5.97;;;2.60;;
21677;SDS011;11000;50.360;7.582;2023-05-10T07:22:49;3.43;;;2.27;;
21677;SDS011;11000;50.360;7.582;2023-05-10T07:25:10;4.90;;;2.23;;
21677;SDS011;11000;50.360;7.582;2023-05-10T07:27:30;3.60;;;2.60;;
21677;SDS011;11000;50.360;7.582;2023-05-10T07:29:51;7.93;;;3.10;;
21677;SDS011;11000;50.360;7.582;2023-05-10T07:32:11;3.47;;;2.30;;
21677;SDS011;11000;50.360;7.582;2023-05-10T07:34:32;4.07;;;2.40;;
21677;SDS011;11000;50.360;7.582;2023-05-10T07:36:52;4.37;;;2.60;;
21677;SDS011;11000;50.360;7.582;2023-05-10T07:39:13;4.17;;;2.20;;
21677;SDS011;11000;50.360;7.582;2023-05-10T07:41:34;5.20;;;2.50;;
21677;SDS011;11000;50.360;7.582;2023-05-10T07:43:54;2.77;;;2.10;;
21677;SDS011;11000;50.360;7.582;2023-05-10T07:46:15;8.53;;;2.40;;
21677;SDS011;11000;50.360;7.582;2023-05-10T07:48:36;3.57;;;2.17;;
21677;SDS011;11000;50.360;7.582;2023-05-10T07:50:57;5.03;;;2.07;;
21677;SDS011;11000;50.360;7.582;2023-05-10T07:53:17;3.60;;;2.10;;
21677;SDS011;11000;50.360;7.582;2023-05-10T07:55:40;7.27;;;2.47;;
21677;SDS011;11000;50.360;7.582;2023-05-10T07:58:03;4.87;;;2.40;;
21677;SDS011;11000;50.360;7.582;2023-05-10T08:00:23;3.03;;;2.07;;
21677;SDS011;11000;50.360;7.582;2023-05-10T08:02:44;3.17;;;1.90;;
21677;SDS011;11000;50.360;7.582;2023-05-10T08:05:05;4.47;;;2.40;;
21677;SDS011;11000;50.360;7.582;2023-05-10T08:07:26;4.07;;;2.70;;
21677;SDS011;11000;50.360;7.582;2023-05-10T08:09:46;4.17;;;2.40;;
21677;SDS011;11000;50.360;7.582;2023-05-10T08:12:07;6.07;;;2.60;;
21677;SDS011;11000;50.360;7.582;2023-05-10T08:14:31;2.73;;;2.40;;
21677;SDS011;11000;50.360;7.582;2023-05-10T08:16:51;5.23;;;2.27;;
21677;SDS011;11000;50.360;7.582;2023-05-10T08:19:12;5.20;;;2.30;;
21677;SDS011;11000;50.360;7.582;2023-05-10T08:21:32;6.90;;;2.40;;
21677;SDS011;11000;50.360;7.582;2023-05-10T08:23:53;3.03;;;2.03;;
21677;SDS011;11000;50.360;7.582;2023-05-10T08:26:14;3.70;;;2.17;;
21677;SDS011;11000;50.360;7.582;2023-05-10T08:28:34;2.40;;;1.97;;
21677;SDS011;11000;50.360;7.582;2023-05-10T08:30:55;4.00;;;2.20;;
21677;SDS011;11000;50.360;7.582;2023-05-10T08:33:17;6.00;;;2.30;;
21677;SDS011;11000;50.360;7.582;2023-05-10T08:35:38;6.57;;;2.07;;
21677;SDS011;11000;50.360;7.582;2023-05-10T08:37:59;4.70;;;1.90;;
21677;SDS011;11000;50.360;7.582;2023-05-10T08:40:19;3.93;;;2.00;;
21677;SDS011;11000;50.360;7.582;2023-05-10T08:42:42;4.07;;;2.27;;
21677;SDS011;11000;50.360;7.582;2023-05-10T08:45:08;4.30;;;1.90;;
21677;SDS011;11000;50.360;7.582;2023-05-10T08:47:30;3.43;;;1.83;;
21677;SDS011;11000;50.360;7.582;2023-05-10T08:49:50;2.50;;;1.80;;
21677;SDS011;11000;50.360;7.582;2023-05-10T08:52:12;5.50;;;1.80;;
21677;SDS011;11000;50.360;7.582;2023-05-10T08:54:35;1.80;;;1.50;;
21677;SDS011;11000;50.360;7.582;2023-05-10T08:56:56;4.83;;;1.70;;
21677;SDS011;11000;50.360;7.582;2023-05-10T08:59:17;3.17;;;2.00;;
21677;SDS011;11000;50.360;7.582;2023-05-10T09:01:37;3.40;;;1.60;;
21677;SDS011;11000;50.360;7.582;2023-05-10T09:03:59;5.70;;;1.50;;
21677;SDS011;11000;50.360;7.582;2023-05-10T09:06:19;5.27;;;1.90;;
21677;SDS011;11000;50.360;7.582;2023-05-10T09:08:41;2.37;;;1.37;;
21677;SDS011;11000;50.360;7.582;2023-05-10T09:11:02;4.77;;;1.60;;
21677;SDS011;11000;50.360;7.582;2023-05-10T09:13:23;0.90;;;0.80;;
21677;SDS011;11000;50.360;7.582;2023-05-10T09:15:45;1.47;;;1.20;;
21677;SDS011;11000;50.360;7.582;2023-05-10T09:18:07;0.70;;;0.70;;
21677;SDS011;11000;50.360;7.582;2023-05-10T09:20:27;4.43;;;0.90;;
21677;SDS011;11000;50.360;7.582;2023-05-10T09:22:48;2.90;;;0.90;;
21677;SDS011;11000;50.360;7.582;2023-05-10T09:25:10;1.80;;;0.90;;
21677;SDS011;11000;50.360;7.582;2023-05-10T09:27:32;1.83;;;0.63;;
21677;SDS011;11000;50.360;7.582;2023-05-10T09:29:53;6.27;;;0.90;;
21677;SDS011;11000;50.360;7.582;2023-05-10T09:32:15;1.40;;;0.50;;
21677;SDS011;11000;50.360;7.582;2023-05-10T09:34:35;0.70;;;0.50;;
21677;SDS011;11000;50.360;7.582;2023-05-10T09:37:01;1.20;;;0.40;;
21677;SDS011;11000;50.360;7.582;2023-05-10T09:39:35;0.40;;;0.40;;
21677;SDS011;11000;50.360;7.582;2023-05-10T09:41:57;1.40;;;0.20;;
21677;SDS011;11000;50.360;7.582;2023-05-10T09:44:19;0.63;;;0.20;;
21677;SDS011;11000;50.360;7.582;2023-05-10T09:46:39;0.50;;;0.20;;
21677;SDS011;11000;50.360;7.582;2023-05-10T09:49:00;0.20;;;0.20;;
21677;SDS011;11000;50.360;7.582;2023-05-10T09:51:21;0.10;;;0.10;;
21677;SDS011;11000;50.360;7.582;2023-05-10T09:53:42;0.30;;;0.10;;
21677;SDS011;11000;50.360;7.582;2023-05-10T09:56:03;0.87;;;0.27;;
21677;SDS011;11000;50.360;7.582;2023-05-10T09:58:23;1.13;;;0.30;;
21677;SDS011;11000;50.360;7.582;2023-05-10T10:00:45;0.60;;;0.33;;
21677;SDS011;11000;50.360;7.582;2023-05-10T10:03:17;0.40;;;0.30;;
21677;SDS011;11000;50.360;7.582;2023-05-10T10:05:39;1.17;;;0.43;;
21677;SDS011;11000;50.360;7.582;2023-05-10T10:08:03;3.17;;;0.50;;
21677;SDS011;11000;50.360;7.582;2023-05-10T10:10:25;1.27;;;0.20;;
21677;SDS011;11000;50.360;7.582;2023-05-10T10:12:46;0.60;;;0.30;;
21677;SDS011;11000;50.360;7.582;2023-05-10T10:15:08;0.80;;;0.10;;
21677;SDS011;11000;50.360;7.582;2023-05-10T10:17:29;0.63;;;0.20;;
21677;SDS011;11000;50.360;7.582;2023-05-10T10:19:51;1.37;;;0.20;;
21677;SDS011;11000;50.360;7.582;2023-05-10T10:22:12;0.90;;;0.30;;
21677;SDS011;11000;50.360;7.582;2023-05-10T10:24:33;2.53;;;0.50;;
21677;SDS011;11000;50.360;7.582;2023-05-10T10:27:04;0.20;;;0.20;;
21677;SDS011;11000;50.360;7.582;2023-05-10T10:35:12;0.30;;;0.20;;
21677;SDS011;11000;50.360;7.582;2023-05-10T10:37:46;0.50;;;0.20;;
21677;SDS011;11000;50.360;7.582;2023-05-10T10:40:23;0.30;;;0.30;;
21677;SDS011;11000;50.360;7.582;2023-05-10T10:42:46;1.57;;;0.50;;
21677;SDS011;11000;50.360;7.582;2023-05-10T10:45:13;0.30;;;0.20;;
21677;SDS011;11000;50.360;7.582;2023-05-10T10:47:33;0.50;;;0.20;;
21677;SDS011;11000;50.360;7.582;2023-05-10T10:52:32;0.27;;;0.27;;
21677;SDS011;11000;50.360;7.582;2023-05-10T10:55:12;0.87;;;0.30;;
21677;SDS011;11000;50.360;7.582;2023-05-10T10:57:44;0.47;;;0.20;;
21677;SDS011;11000;50.360;7.582;2023-05-10T11:03:06;0.30;;;0.30;;
21677;SDS011;11000;50.360;7.582;2023-05-10T11:05:34;0.43;;;0.30;;
21677;SDS011;11000;50.360;7.582;2023-05-10T11:08:18;0.67;;;0.30;;
21677;SDS011;11000;50.360;7.582;2023-05-10T11:10:53;1.13;;;0.40;;
21677;SDS011;11000;50.360;7.582;2023-05-10T11:13:27;1.10;;;0.40;;
21677;SDS011;11000;50.360;7.582;2023-05-10T11:15:49;0.53;;;0.30;;
21677;SDS011;11000;50.360;7.582;2023-05-10T11:20:44;1.67;;;0.50;;
21677;SDS011;11000;50.360;7.582;2023-05-10T11:23:22;0.53;;;0.27;;
21677;SDS011;11000;50.360;7.582;2023-05-10T11:25:43;0.40;;;0.40;;
21677;SDS011;11000;50.360;7.582;2023-05-10T11:28:06;1.40;;;0.30;;
21677;SDS011;11000;50.360;7.582;2023-05-10T11:30:26;0.50;;;0.47;;
21677;SDS011;11000;50.360;7.582;2023-05-10T11:32:47;1.60;;;0.30;;
21677;SDS011;11000;50.360;7.582;2023-05-10T11:35:08;1.33;;;0.30;;
21677;SDS011;11000;50.360;7.582;2023-05-10T11:37:30;1.70;;;0.40;;
21677;SDS011;11000;50.360;7.582;2023-05-10T11:39:54;0.93;;;0.20;;
21677;SDS011;11000;50.360;7.582;2023-05-10T11:42:14;0.80;;;0.30;;
21677;SDS011;11000;50.360;7.582;2023-05-10T11:44:35;0.80;;;0.20;;
21677;SDS011;11000;50.360;7.582;2023-05-10T11:46:57;0.67;;;0.40;;
21677;SDS011;11000;50.360;7.582;2023-05-10T11:49:19;1.33;;;0.30;;
21677;SDS011;11000;50.360;7.582;2023-05-10T11:51:42;0.40;;;0.40;;
21677;SDS011;11000;50.360;7.582;2023-05-10T11:54:07;0.30;;;0.30;;
21677;SDS011;11000;50.360;7.582;2023-05-10T11:56:29;0.80;;;0.20;;
21677;SDS011;11000;50.360;7.582;2023-05-10T11:58:53;1.10;;;0.30;;
21677;SDS011;11000;50.360;7.582;2023-05-10T12:01:15;0.73;;;0.33;;
21677;SDS011;11000;50.360;7.582;2023-05-10T12:03:36;0.43;;;0.40;;
21677;SDS011;11000;50.360;7.582;2023-05-10T12:05:58;1.67;;;0.40;;
21677;SDS011;11000;50.360;7.582;2023-05-10T12:08:20;5.00;;;0.40;;
21677;SDS011;11000;50.360;7.582;2023-05-10T12:10:43;2.73;;;0.50;;
21677;SDS011;11000;50.360;7.582;2023-05-10T12:13:03;0.53;;;0.40;;
21677;SDS011;11000;50.360;7.582;2023-05-10T12:15:24;0.70;;;0.67;;
21677;SDS011;11000;50.360;7.582;2023-05-10T12:17:45;1.73;;;0.43;;
21677;SDS011;11000;50.360;7.582;2023-05-10T12:20:13;1.40;;;0.50;;
21677;SDS011;11000;50.360;7.582;2023-05-10T12:22:38;1.50;;;0.40;;
21677;SDS011;11000;50.360;7.582;2023-05-10T12:24:58;3.13;;;0.50;;
21677;SDS011;11000;50.360;7.582;2023-05-10T12:27:19;0.93;;;0.47;;
21677;SDS011;11000;50.360;7.582;2023-05-10T12:29:41;0.93;;;0.40;;
21677;SDS011;11000;50.360;7.582;2023-05-10T12:32:04;0.43;;;0.40;;
21677;SDS011;11000;50.360;7.582;2023-05-10T12:34:31;0.47;;;0.40;;
21677;SDS011;11000;50.360;7.582;2023-05-10T12:36:53;0.40;;;0.40;;
21677;SDS011;11000;50.360;7.582;2023-05-10T12:39:14;0.50;;;0.30;;
21677;SDS011;11000;50.360;7.582;2023-05-10T12:41:35;2.80;;;0.30;;
21677;SDS011;11000;50.360;7.582;2023-05-10T12:43:56;0.90;;;0.70;;
21677;SDS011;11000;50.360;7.582;2023-05-10T12:46:17;1.27;;;0.33;;
21677;SDS011;11000;50.360;7.582;2023-05-10T12:48:38;0.30;;;0.30;;
21677;SDS011;11000;50.360;7.582;2023-05-10T12:51:01;0.77;;;0.30;;
21677;SDS011;11000;50.360;7.582;2023-05-10T12:53:22;0.50;;;0.40;;
21677;SDS011;11000;50.360;7.582;2023-05-10T12:55:43;0.50;;;0.37;;
21677;SDS011;11000;50.360;7.582;2023-05-10T12:58:04;0.30;;;0.27;;
21677;SDS011;11000;50.360;7.582;2023-05-10T13:00:24;0.20;;;0.20;;
21677;SDS011;11000;50.360;7.582;2023-05-10T13:02:45;0.73;;;0.37;;
21677;SDS011;11000;50.360;7.582;2023-05-10T13:05:06;0.30;;;0.30;;
21677;SDS011;11000;50.360;7.582;2023-05-10T13:07:27;0.40;;;0.40;;
21677;SDS011;11000;50.360;7.582;2023-05-10T13:09:53;0.27;;;0.07;;
21677;SDS011;11000;50.360;7.582;2023-05-10T13:12:14;0.10;;;0.10;;
21677;SDS011;11000;50.360;7.582;2023-05-10T13:14:35;0.30;;;0.20;;
21677;SDS011;11000;50.360;7.582;2023-05-10T13:16:55;0.70;;;0.60;;
21677;SDS011;11000;50.360;7.582;2023-05-10T13:19:16;2.40;;;0.40;;
21677;SDS011;11000;50.360;7.582;2023-05-10T13:21:37;1.23;;;0.27;;
21677;SDS011;11000;50.360;7.582;2023-05-10T13:23:58;0.30;;;0.30;;
21677;SDS011;11000;50.360;7.582;2023-05-10T13:26:18;0.37;;;0.30;;
21677;SDS011;11000;50.360;7.582;2023-05-10T13:28:39;0.83;;;0.30;;
21677;SDS011;11000;50.360;7.582;2023-05-10T13:31:00;1.30;;;0.27;;
21677;SDS011;11000;50.360;7.582;2023-05-10T13:33:21;0.53;;;0.47;;
21677;SDS011;11000;50.360;7.582;2023-05-10T13:35:41;0.30;;;0.30;;
21677;SDS011;11000;50.360;7.582;2023-05-10T13:38:01;0.50;;;0.50;;
21677;SDS011;11000;50.360;7.582;2023-05-10T13:40:22;0.43;;;0.30;;
21677;SDS011;11000;50.360;7.582;2023-05-10T13:42:42;0.50;;;0.50;;
21677;SDS011;11000;50.360;7.582;2023-05-10T13:45:03;0.57;;;0.40;;
21677;SDS011;11000;50.360;7.582;2023-05-10T13:47:24;0.30;;;0.30;;
21677;SDS011;11000;50.360;7.582;2023-05-10T13:49:44;1.13;;;0.37;;
21677;SDS011;11000;50.360;7.582;2023-05-10T13:52:05;2.20;;;0.43;;
21677;SDS011;11000;50.360;7.582;2023-05-10T13:54:26;1.23;;;0.40;;
21677;SDS011;11000;50.360;7.582;2023-05-10T13:56:49;1.57;;;0.60;;
21677;SDS011;11000;50.360;7.582;2023-05-10T13:59:10;0.60;;;0.50;;
21677;SDS011;11000;50.360;7.582;2023-05-10T14:01:30;1.50;;;0.50;;
21677;SDS011;11000;50.360;7.582;2023-05-10T14:03:52;4.77;;;0.70;;
21677;SDS011;11000;50.360;7.582;2023-05-10T14:06:13;0.30;;;0.30;;
21677;SDS011;11000;50.360;7.582;2023-05-10T14:08:35;1.27;;;0.50;;
21677;SDS011;11000;50.360;7.582;2023-05-10T14:10:55;0.40;;;0.40;;
21677;SDS011;11000;50.360;7.582;2023-05-10T14:13:16;0.37;;;0.37;;
21677;SDS011;11000;50.360;7.582;2023-05-10T14:15:37;1.17;;;0.50;;
21677;SDS011;11000;50.360;7.582;2023-05-10T14:17:57;0.37;;;0.37;;
21677;SDS011;11000;50.360;7.582;2023-05-10T14:20:18;0.50;;;0.37;;
21677;SDS011;11000;50.360;7.582;2023-05-10T14:22:38;0.50;;;0.40;;
21677;SDS011;11000;50.360;7.582;2023-05-10T14:25:00;0.70;;;0.50;;
21677;SDS011;11000;50.360;7.582;2023-05-10T14:27:21;4.80;;;0.30;;
21677;SDS011;11000;50.360;7.582;2023-05-10T14:29:43;0.20;;;0.20;;
21677;SDS011;11000;50.360;7.582;2023-05-10T14:32:06;1.40;;;0.30;;
21677;SDS011;11000;50.360;7.582;2023-05-10T14:34:27;1.90;;;0.40;;
21677;SDS011;11000;50.360;7.582;2023-05-10T14:36:48;1.20;;;0.30;;
21677;SDS011;11000;50.360;7.582;2023-05-10T14:39:08;0.30;;;0.27;;
21677;SDS011;11000;50.360;7.582;2023-05-10T14:41:32;0.30;;;0.30;;
21677;SDS011;11000;50.360;7.582;2023-05-10T14:43:53;0.50;;;0.40;;
21677;SDS011;11000;50.360;7.582;2023-05-10T14:46:13;1.40;;;0.40;;
21677;SDS011;11000;50.360;7.582;2023-05-10T14:48:34;1.73;;;0.60;;